Country
Station

 

Weather  for  Habarovsk  -  Russian Federation    Russian Federation

  
-16 °C (3 °F)
    
 
 

Current METAR for Habarovsk is :

UHHH 121430Z 27006MPS CAVOK M16/M22 Q1015 R23L/090060 NOSIG RMK QFE755/1007

 

This is a report for Habarovsk - Russian Federation.
 
The report was made 30 minutes ago, at 14:30 UTC .
The wind was blowing at a speed of 6 meters per second (13.4 miles per hour) from west (270°).
 
The temperature was -16 °C (3 °F), with a dew-point at -22 °C (-8 °F).
The temperature felt like -25 °C (-15 °F).
 
The atmospheric pressure was 1015 hPa (29.97 inHg).
The relative humidity was 59.7%.
 
There were no clouds below 1500 meter (5000 feet) and no cumulonimbus clouds.
 
The overall visibility was greater than 10 kilometers (6.2 miles).
 

 
 
 
 

Country :   A   B   C   D   E   F   G   H   I   J   K   L   M   N   O   P   Q   R   S   T   U   V   W   Y   Z

 

Site Info  |  Disclaimer  |  Credits  |  Privacy
Contact us  |  Add to favorites
© 2013-2019 METARs - All rights reserved